sensor_id;sensor_type;location;lat;lon;timestamp;temperature;humidity
2955;DHT22;1487;51.470;6.938;2023-06-24T00:02:00;17.80;99.90
2955;DHT22;1487;51.470;6.938;2023-06-24T00:04:28;17.80;99.90
2955;DHT22;1487;51.470;6.938;2023-06-24T00:06:55;17.80;99.90
2955;DHT22;1487;51.470;6.938;2023-06-24T00:09:24;17.70;99.90
2955;DHT22;1487;51.470;6.938;2023-06-24T00:11:51;17.70;99.90
2955;DHT22;1487;51.470;6.938;2023-06-24T00:14:18;17.70;99.90
2955;DHT22;1487;51.470;6.938;2023-06-24T00:16:46;17.70;99.90
2955;DHT22;1487;51.470;6.938;2023-06-24T00:19:18;17.60;99.90
2955;DHT22;1487;51.470;6.938;2023-06-24T00:21:46;17.60;99.90
2955;DHT22;1487;51.470;6.938;2023-06-24T00:24:13;17.50;99.90
2955;DHT22;1487;51.470;6.938;2023-06-24T00:26:39;17.50;99.90
2955;DHT22;1487;51.470;6.938;2023-06-24T00:29:06;17.50;99.90
2955;DHT22;1487;51.470;6.938;2023-06-24T00:31:33;17.50;99.90
2955;DHT22;1487;51.470;6.938;2023-06-24T00:34:00;17.50;99.90
2955;DHT22;1487;51.470;6.938;2023-06-24T00:36:27;17.50;99.90
2955;DHT22;1487;51.470;6.938;2023-06-24T00:38:56;17.40;99.90
2955;DHT22;1487;51.470;6.938;2023-06-24T00:41:29;17.40;99.90
2955;DHT22;1487;51.470;6.938;2023-06-24T00:43:56;17.40;99.90
2955;DHT22;1487;51.470;6.938;2023-06-24T00:46:24;17.40;99.90
2955;DHT22;1487;51.470;6.938;2023-06-24T00:48:51;17.50;99.90
2955;DHT22;1487;51.470;6.938;2023-06-24T00:51:18;17.50;99.90
2955;DHT22;1487;51.470;6.938;2023-06-24T00:53:46;17.40;99.90
2955;DHT22;1487;51.470;6.938;2023-06-24T00:56:16;17.40;99.90
2955;DHT22;1487;51.470;6.938;2023-06-24T00:58:44;17.40;99.90
2955;DHT22;1487;51.470;6.938;2023-06-24T01:01:12;17.40;99.90
2955;DHT22;1487;51.470;6.938;2023-06-24T01:03:40;17.50;99.90
2955;DHT22;1487;51.470;6.938;2023-06-24T01:06:08;17.50;99.90
2955;DHT22;1487;51.470;6.938;2023-06-24T01:08:35;17.50;99.90
2955;DHT22;1487;51.470;6.938;2023-06-24T01:11:03;17.40;99.90
2955;DHT22;1487;51.470;6.938;2023-06-24T01:13:31;17.40;99.90
2955;DHT22;1487;51.470;6.938;2023-06-24T01:16:02;17.40;99.90
2955;DHT22;1487;51.470;6.938;2023-06-24T01:18:36;17.50;99.90
2955;DHT22;1487;51.470;6.938;2023-06-24T01:21:10;17.50;99.90
2955;DHT22;1487;51.470;6.938;2023-06-24T01:24:11;17.50;99.90
2955;DHT22;1487;51.470;6.938;2023-06-24T01:30:18;17.50;99.90
2955;DHT22;1487;51.470;6.938;2023-06-24T01:32:55;17.50;99.90
2955;DHT22;1487;51.470;6.938;2023-06-24T01:35:25;17.40;99.90
2955;DHT22;1487;51.470;6.938;2023-06-24T01:37:55;17.40;99.90
2955;DHT22;1487;51.470;6.938;2023-06-24T01:40:26;17.30;99.90
2955;DHT22;1487;51.470;6.938;2023-06-24T01:42:54;17.30;99.90
2955;DHT22;1487;51.470;6.938;2023-06-24T01:45:25;17.30;99.90
2955;DHT22;1487;51.470;6.938;2023-06-24T01:47:59;17.30;99.90
2955;DHT22;1487;51.470;6.938;2023-06-24T01:50:27;17.30;99.90
2955;DHT22;1487;51.470;6.938;2023-06-24T01:52:56;17.20;99.90
2955;DHT22;1487;51.470;6.938;2023-06-24T01:55:24;17.30;99.90
2955;DHT22;1487;51.470;6.938;2023-06-24T01:57:52;17.20;99.90
2955;DHT22;1487;51.470;6.938;2023-06-24T02:00:21;17.20;99.90
2955;DHT22;1487;51.470;6.938;2023-06-24T02:02:50;17.20;99.90
2955;DHT22;1487;51.470;6.938;2023-06-24T02:05:18;17.20;99.90
2955;DHT22;1487;51.470;6.938;2023-06-24T02:07:47;17.20;99.90
2955;DHT22;1487;51.470;6.938;2023-06-24T02:10:16;17.20;99.90
2955;DHT22;1487;51.470;6.938;2023-06-24T02:12:45;17.20;99.90
2955;DHT22;1487;51.470;6.938;2023-06-24T02:15:13;17.20;99.90
2955;DHT22;1487;51.470;6.938;2023-06-24T02:17:41;17.20;99.90
2955;DHT22;1487;51.470;6.938;2023-06-24T02:20:09;17.20;99.90
2955;DHT22;1487;51.470;6.938;2023-06-24T02:22:39;17.20;99.90
2955;DHT22;1487;51.470;6.938;2023-06-24T02:25:06;17.20;99.90
2955;DHT22;1487;51.470;6.938;2023-06-24T02:27:35;17.20;99.90
2955;DHT22;1487;51.470;6.938;2023-06-24T02:30:03;17.20;99.90
2955;DHT22;1487;51.470;6.938;2023-06-24T02:32:30;17.20;99.90
2955;DHT22;1487;51.470;6.938;2023-06-24T02:34:58;17.20;99.90
2955;DHT22;1487;51.470;6.938;2023-06-24T02:37:25;17.30;99.90
2955;DHT22;1487;51.470;6.938;2023-06-24T02:39:53;17.30;99.90
2955;DHT22;1487;51.470;6.938;2023-06-24T02:42:20;17.30;99.90
2955;DHT22;1487;51.470;6.938;2023-06-24T02:44:46;17.30;99.90
2955;DHT22;1487;51.470;6.938;2023-06-24T02:47:15;17.30;99.90
2955;DHT22;1487;51.470;6.938;2023-06-24T02:49:44;17.30;99.90
2955;DHT22;1487;51.470;6.938;2023-06-24T02:52:13;17.40;99.90
2955;DHT22;1487;51.470;6.938;2023-06-24T02:54:41;17.40;99.90
2955;DHT22;1487;51.470;6.938;2023-06-24T02:57:09;17.40;99.90
2955;DHT22;1487;51.470;6.938;2023-06-24T02:59:36;17.40;99.90
2955;DHT22;1487;51.470;6.938;2023-06-24T03:02:04;17.40;99.90
2955;DHT22;1487;51.470;6.938;2023-06-24T03:04:32;17.40;99.90
2955;DHT22;1487;51.470;6.938;2023-06-24T03:06:59;17.40;99.90
2955;DHT22;1487;51.470;6.938;2023-06-24T03:09:28;17.50;99.90
2955;DHT22;1487;51.470;6.938;2023-06-24T03:11:54;17.50;99.90
2955;DHT22;1487;51.470;6.938;2023-06-24T03:14:23;17.60;99.90
2955;DHT22;1487;51.470;6.938;2023-06-24T03:16:49;17.70;99.90
2955;DHT22;1487;51.470;6.938;2023-06-24T03:19:16;17.70;99.90
2955;DHT22;1487;51.470;6.938;2023-06-24T03:21:43;17.80;99.90
2955;DHT22;1487;51.470;6.938;2023-06-24T03:24:10;17.80;99.90
2955;DHT22;1487;51.470;6.938;2023-06-24T03:26:37;17.90;99.90
2955;DHT22;1487;51.470;6.938;2023-06-24T03:29:05;18.00;99.90
2955;DHT22;1487;51.470;6.938;2023-06-24T03:31:34;18.00;99.90
2955;DHT22;1487;51.470;6.938;2023-06-24T03:34:00;18.10;99.90
2955;DHT22;1487;51.470;6.938;2023-06-24T03:36:27;18.10;99.90
2955;DHT22;1487;51.470;6.938;2023-06-24T03:38:54;18.00;99.90
2955;DHT22;1487;51.470;6.938;2023-06-24T03:41:21;18.00;99.90
2955;DHT22;1487;51.470;6.938;2023-06-24T03:43:48;18.00;99.90
2955;DHT22;1487;51.470;6.938;2023-06-24T03:46:15;18.00;99.90
2955;DHT22;1487;51.470;6.938;2023-06-24T03:48:43;18.10;99.90
2955;DHT22;1487;51.470;6.938;2023-06-24T03:51:10;18.20;99.90
2955;DHT22;1487;51.470;6.938;2023-06-24T03:53:37;18.20;99.90
2955;DHT22;1487;51.470;6.938;2023-06-24T03:56:04;18.30;99.90
2955;DHT22;1487;51.470;6.938;2023-06-24T03:58:31;18.40;99.90
2955;DHT22;1487;51.470;6.938;2023-06-24T04:00:59;18.50;99.90
2955;DHT22;1487;51.470;6.938;2023-06-24T04:03:26;18.60;99.90
2955;DHT22;1487;51.470;6.938;2023-06-24T04:05:55;18.70;99.90
2955;DHT22;1487;51.470;6.938;2023-06-24T04:08:23;18.70;99.90
2955;DHT22;1487;51.470;6.938;2023-06-24T04:10:51;18.80;99.90
2955;DHT22;1487;51.470;6.938;2023-06-24T04:13:17;18.90;99.90
2955;DHT22;1487;51.470;6.938;2023-06-24T04:15:44;19.00;99.90
2955;DHT22;1487;51.470;6.938;2023-06-24T04:18:11;19.00;99.90
2955;DHT22;1487;51.470;6.938;2023-06-24T04:20:38;19.10;99.90
2955;DHT22;1487;51.470;6.938;2023-06-24T04:23:06;19.10;99.90
2955;DHT22;1487;51.470;6.938;2023-06-24T04:25:34;19.20;99.90
2955;DHT22;1487;51.470;6.938;2023-06-24T04:28:01;19.30;99.90
2955;DHT22;1487;51.470;6.938;2023-06-24T04:30:28;19.30;99.90
2955;DHT22;1487;51.470;6.938;2023-06-24T04:32:55;19.30;99.90
2955;DHT22;1487;51.470;6.938;2023-06-24T04:35:21;19.30;99.90
2955;DHT22;1487;51.470;6.938;2023-06-24T04:37:48;19.30;99.90
2955;DHT22;1487;51.470;6.938;2023-06-24T04:40:17;19.30;99.90
2955;DHT22;1487;51.470;6.938;2023-06-24T04:42:44;19.30;99.90
2955;DHT22;1487;51.470;6.938;2023-06-24T04:45:11;19.30;99.90
2955;DHT22;1487;51.470;6.938;2023-06-24T04:47:38;19.30;99.90
2955;DHT22;1487;51.470;6.938;2023-06-24T04:50:05;19.30;99.90
2955;DHT22;1487;51.470;6.938;2023-06-24T04:52:35;19.30;99.90
2955;DHT22;1487;51.470;6.938;2023-06-24T04:55:02;19.30;99.90
2955;DHT22;1487;51.470;6.938;2023-06-24T04:57:31;19.30;99.90
2955;DHT22;1487;51.470;6.938;2023-06-24T04:59:58;19.20;99.90
2955;DHT22;1487;51.470;6.938;2023-06-24T05:02:25;19.20;99.90
2955;DHT22;1487;51.470;6.938;2023-06-24T05:04:53;19.20;99.90
2955;DHT22;1487;51.470;6.938;2023-06-24T05:07:19;19.20;99.90
2955;DHT22;1487;51.470;6.938;2023-06-24T05:09:47;19.10;99.90
2955;DHT22;1487;51.470;6.938;2023-06-24T05:12:14;19.20;99.90
2955;DHT22;1487;51.470;6.938;2023-06-24T05:14:42;19.30;99.90
2955;DHT22;1487;51.470;6.938;2023-06-24T05:17:09;19.30;99.90
2955;DHT22;1487;51.470;6.938;2023-06-24T05:19:36;19.30;99.90
2955;DHT22;1487;51.470;6.938;2023-06-24T05:22:03;19.30;99.90
2955;DHT22;1487;51.470;6.938;2023-06-24T05:24:30;19.30;99.90
2955;DHT22;1487;51.470;6.938;2023-06-24T05:27:03;19.30;99.90
2955;DHT22;1487;51.470;6.938;2023-06-24T05:29:29;19.30;99.90
2955;DHT22;1487;51.470;6.938;2023-06-24T05:31:57;19.30;99.90
2955;DHT22;1487;51.470;6.938;2023-06-24T05:34:25;19.30;99.90
2955;DHT22;1487;51.470;6.938;2023-06-24T05:36:52;19.40;99.90
2955;DHT22;1487;51.470;6.938;2023-06-24T05:39:20;19.60;99.90
2955;DHT22;1487;51.470;6.938;2023-06-24T05:41:47;19.70;99.90
2955;DHT22;1487;51.470;6.938;2023-06-24T05:44:14;19.90;99.90
2955;DHT22;1487;51.470;6.938;2023-06-24T05:46:43;19.90;99.90
2955;DHT22;1487;51.470;6.938;2023-06-24T05:49:11;19.90;99.90
2955;DHT22;1487;51.470;6.938;2023-06-24T05:51:38;19.90;99.90
2955;DHT22;1487;51.470;6.938;2023-06-24T05:54:05;19.90;99.90
2955;DHT22;1487;51.470;6.938;2023-06-24T05:56:33;19.70;99.90
2955;DHT22;1487;51.470;6.938;2023-06-24T05:59:01;19.80;99.90
2955;DHT22;1487;51.470;6.938;2023-06-24T06:01:28;19.80;99.90
2955;DHT22;1487;51.470;6.938;2023-06-24T06:03:55;19.70;99.90
2955;DHT22;1487;51.470;6.938;2023-06-24T06:06:23;19.90;99.90
2955;DHT22;1487;51.470;6.938;2023-06-24T06:08:50;20.00;99.90
2955;DHT22;1487;51.470;6.938;2023-06-24T06:11:17;20.30;99.90
2955;DHT22;1487;51.470;6.938;2023-06-24T06:13:43;20.50;99.90
2955;DHT22;1487;51.470;6.938;2023-06-24T06:16:10;20.80;99.90
2955;DHT22;1487;51.470;6.938;2023-06-24T06:18:37;20.90;99.90
2955;DHT22;1487;51.470;6.938;2023-06-24T06:21:04;20.90;99.90
2955;DHT22;1487;51.470;6.938;2023-06-24T06:23:32;20.90;99.90
2955;DHT22;1487;51.470;6.938;2023-06-24T06:25:59;20.80;99.90
2955;DHT22;1487;51.470;6.938;2023-06-24T06:28:25;20.80;99.90
2955;DHT22;1487;51.470;6.938;2023-06-24T06:30:52;20.70;99.90
2955;DHT22;1487;51.470;6.938;2023-06-24T06:33:19;20.80;99.90
2955;DHT22;1487;51.470;6.938;2023-06-24T06:35:46;20.80;99.90
2955;DHT22;1487;51.470;6.938;2023-06-24T06:38:13;20.80;99.90
2955;DHT22;1487;51.470;6.938;2023-06-24T06:40:41;20.90;99.90
2955;DHT22;1487;51.470;6.938;2023-06-24T06:43:08;21.10;99.90
2955;DHT22;1487;51.470;6.938;2023-06-24T06:45:34;21.20;99.90
2955;DHT22;1487;51.470;6.938;2023-06-24T06:48:01;21.30;99.90
2955;DHT22;1487;51.470;6.938;2023-06-24T06:50:32;21.20;99.90
2955;DHT22;1487;51.470;6.938;2023-06-24T06:53:00;21.50;99.90
2955;DHT22;1487;51.470;6.938;2023-06-24T06:55:26;21.90;99.90
2955;DHT22;1487;51.470;6.938;2023-06-24T06:57:54;22.10;99.90
2955;DHT22;1487;51.470;6.938;2023-06-24T07:00:22;22.10;99.90
2955;DHT22;1487;51.470;6.938;2023-06-24T07:02:48;22.20;99.90
2955;DHT22;1487;51.470;6.938;2023-06-24T07:05:15;22.50;99.90
2955;DHT22;1487;51.470;6.938;2023-06-24T07:07:43;22.80;99.90
2955;DHT22;1487;51.470;6.938;2023-06-24T07:10:11;22.90;99.90
2955;DHT22;1487;51.470;6.938;2023-06-24T07:12:38;23.40;99.90
2955;DHT22;1487;51.470;6.938;2023-06-24T07:15:07;23.80;99.90
2955;DHT22;1487;51.470;6.938;2023-06-24T07:17:34;23.90;99.90
2955;DHT22;1487;51.470;6.938;2023-06-24T07:20:01;24.30;99.90
2955;DHT22;1487;51.470;6.938;2023-06-24T07:22:27;24.90;99.90
2955;DHT22;1487;51.470;6.938;2023-06-24T07:24:56;25.70;99.90
2955;DHT22;1487;51.470;6.938;2023-06-24T07:27:22;26.10;99.90
2955;DHT22;1487;51.470;6.938;2023-06-24T07:29:49;26.20;99.90
2955;DHT22;1487;51.470;6.938;2023-06-24T07:32:17;26.40;99.90
2955;DHT22;1487;51.470;6.938;2023-06-24T07:34:44;26.30;99.90
2955;DHT22;1487;51.470;6.938;2023-06-24T07:37:11;26.30;99.90
2955;DHT22;1487;51.470;6.938;2023-06-24T07:39:37;26.20;99.90
2955;DHT22;1487;51.470;6.938;2023-06-24T07:42:05;26.40;99.90
2955;DHT22;1487;51.470;6.938;2023-06-24T07:44:31;26.40;99.90
2955;DHT22;1487;51.470;6.938;2023-06-24T07:46:58;27.20;99.90
2955;DHT22;1487;51.470;6.938;2023-06-24T07:49:26;27.20;99.90
2955;DHT22;1487;51.470;6.938;2023-06-24T07:51:53;27.70;99.90
2955;DHT22;1487;51.470;6.938;2023-06-24T07:54:20;27.80;99.90
2955;DHT22;1487;51.470;6.938;2023-06-24T07:56:46;27.70;99.90
2955;DHT22;1487;51.470;6.938;2023-06-24T07:59:13;28.10;99.90
2955;DHT22;1487;51.470;6.938;2023-06-24T08:01:40;28.80;99.90
2955;DHT22;1487;51.470;6.938;2023-06-24T08:04:07;29.30;99.90
2955;DHT22;1487;51.470;6.938;2023-06-24T08:06:35;29.10;99.90
2955;DHT22;1487;51.470;6.938;2023-06-24T08:09:02;29.50;99.90
2955;DHT22;1487;51.470;6.938;2023-06-24T08:11:28;29.20;99.90
2955;DHT22;1487;51.470;6.938;2023-06-24T08:13:55;29.10;98.90
2955;DHT22;1487;51.470;6.938;2023-06-24T08:16:22;29.10;99.90
2955;DHT22;1487;51.470;6.938;2023-06-24T08:18:49;29.10;99.90
2955;DHT22;1487;51.470;6.938;2023-06-24T08:21:15;29.00;99.70
2955;DHT22;1487;51.470;6.938;2023-06-24T08:23:44;29.60;99.90
2955;DHT22;1487;51.470;6.938;2023-06-24T08:26:29;30.00;98.40
2955;DHT22;1487;51.470;6.938;2023-06-24T08:32:35;30.60;91.40
2955;DHT22;1487;51.470;6.938;2023-06-24T08:35:02;30.70;90.30
2955;DHT22;1487;51.470;6.938;2023-06-24T08:37:28;30.90;90.00
2955;DHT22;1487;51.470;6.938;2023-06-24T08:39:57;30.90;90.00
2955;DHT22;1487;51.470;6.938;2023-06-24T08:42:24;31.30;86.80
2955;DHT22;1487;51.470;6.938;2023-06-24T08:44:50;31.50;85.10
2955;DHT22;1487;51.470;6.938;2023-06-24T08:50:43;30.90;86.40
2955;DHT22;1487;51.470;6.938;2023-06-24T08:53:11;31.40;84.70
2955;DHT22;1487;51.470;6.938;2023-06-24T08:55:43;31.20;79.80
2955;DHT22;1487;51.470;6.938;2023-06-24T08:58:10;31.30;83.20
2955;DHT22;1487;51.470;6.938;2023-06-24T09:00:37;31.50;80.20
2955;DHT22;1487;51.470;6.938;2023-06-24T09:03:04;32.10;75.90
2955;DHT22;1487;51.470;6.938;2023-06-24T09:05:31;32.70;80.50
2955;DHT22;1487;51.470;6.938;2023-06-24T09:07:57;33.10;75.00
2955;DHT22;1487;51.470;6.938;2023-06-24T09:10:31;33.50;71.40
2955;DHT22;1487;51.470;6.938;2023-06-24T09:13:00;33.00;68.60
2955;DHT22;1487;51.470;6.938;2023-06-24T09:15:30;32.80;67.20
2955;DHT22;1487;51.470;6.938;2023-06-24T09:17:57;32.70;68.60
2955;DHT22;1487;51.470;6.938;2023-06-24T09:20:25;32.70;66.40
2955;DHT22;1487;51.470;6.938;2023-06-24T09:22:57;32.90;63.90
2955;DHT22;1487;51.470;6.938;2023-06-24T09:25:25;33.00;67.90
2955;DHT22;1487;51.470;6.938;2023-06-24T09:27:52;32.70;63.40
2955;DHT22;1487;51.470;6.938;2023-06-24T09:30:23;32.90;61.60
2955;DHT22;1487;51.470;6.938;2023-06-24T09:32:51;32.60;63.50
2955;DHT22;1487;51.470;6.938;2023-06-24T09:35:19;32.40;63.00
2955;DHT22;1487;51.470;6.938;2023-06-24T09:37:50;31.90;69.00
2955;DHT22;1487;51.470;6.938;2023-06-24T09:40:17;32.40;66.10
2955;DHT22;1487;51.470;6.938;2023-06-24T09:42:51;32.90;65.00
2955;DHT22;1487;51.470;6.938;2023-06-24T09:45:27;33.40;63.60
2955;DHT22;1487;51.470;6.938;2023-06-24T09:47:54;33.20;60.60
2955;DHT22;1487;51.470;6.938;2023-06-24T09:50:23;32.60;57.00
2955;DHT22;1487;51.470;6.938;2023-06-24T09:52:52;32.80;58.00
2955;DHT22;1487;51.470;6.938;2023-06-24T09:55:19;33.20;61.00
2955;DHT22;1487;51.470;6.938;2023-06-24T09:57:49;33.50;56.30
2955;DHT22;1487;51.470;6.938;2023-06-24T10:00:19;33.10;57.00
2955;DHT22;1487;51.470;6.938;2023-06-24T10:02:48;33.20;61.50
2955;DHT22;1487;51.470;6.938;2023-06-24T10:05:16;33.30;61.10
2955;DHT22;1487;51.470;6.938;2023-06-24T10:07:43;33.30;57.10
2955;DHT22;1487;51.470;6.938;2023-06-24T10:10:10;33.50;58.50
2955;DHT22;1487;51.470;6.938;2023-06-24T10:12:38;34.00;58.30
2955;DHT22;1487;51.470;6.938;2023-06-24T10:15:06;34.30;59.70
2955;DHT22;1487;51.470;6.938;2023-06-24T10:17:33;35.10;58.90
2955;DHT22;1487;51.470;6.938;2023-06-24T10:20:04;35.20;54.30
2955;DHT22;1487;51.470;6.938;2023-06-24T10:22:31;35.20;56.90
2955;DHT22;1487;51.470;6.938;2023-06-24T10:25:00;34.90;55.30
2955;DHT22;1487;51.470;6.938;2023-06-24T10:27:27;35.10;57.00
2955;DHT22;1487;51.470;6.938;2023-06-24T10:30:02;35.40;56.80
2955;DHT22;1487;51.470;6.938;2023-06-24T10:32:39;35.60;56.50
2955;DHT22;1487;51.470;6.938;2023-06-24T10:35:21;35.60;55.60
2955;DHT22;1487;51.470;6.938;2023-06-24T10:37:54;35.10;53.80
2955;DHT22;1487;51.470;6.938;2023-06-24T10:40:34;35.20;57.90
2955;DHT22;1487;51.470;6.938;2023-06-24T10:43:01;35.00;58.10
2955;DHT22;1487;51.470;6.938;2023-06-24T10:45:28;35.70;55.40
2955;DHT22;1487;51.470;6.938;2023-06-24T10:47:55;35.60;51.80
2955;DHT22;1487;51.470;6.938;2023-06-24T10:50:26;35.50;54.20
2955;DHT22;1487;51.470;6.938;2023-06-24T10:52:53;35.90;54.80
2955;DHT22;1487;51.470;6.938;2023-06-24T10:55:23;35.50;52.50
2955;DHT22;1487;51.470;6.938;2023-06-24T10:57:50;35.70;57.70
2955;DHT22;1487;51.470;6.938;2023-06-24T11:00:17;35.80;54.80
2955;DHT22;1487;51.470;6.938;2023-06-24T11:02:46;35.70;53.00
2955;DHT22;1487;51.470;6.938;2023-06-24T11:05:13;35.60;53.70
2955;DHT22;1487;51.470;6.938;2023-06-24T11:07:41;36.00;51.80
2955;DHT22;1487;51.470;6.938;2023-06-24T11:10:10;36.10;54.70
2955;DHT22;1487;51.470;6.938;2023-06-24T11:12:38;35.10;51.50
2955;DHT22;1487;51.470;6.938;2023-06-24T11:15:07;34.70;51.70
2955;DHT22;1487;51.470;6.938;2023-06-24T11:17:35;34.50;54.00
2955;DHT22;1487;51.470;6.938;2023-06-24T11:20:07;34.60;53.00
2955;DHT22;1487;51.470;6.938;2023-06-24T11:22:35;34.80;52.30
2955;DHT22;1487;51.470;6.938;2023-06-24T11:25:03;35.00;50.40
2955;DHT22;1487;51.470;6.938;2023-06-24T11:27:31;35.10;52.20
2955;DHT22;1487;51.470;6.938;2023-06-24T11:29:59;35.50;50.50
2955;DHT22;1487;51.470;6.938;2023-06-24T11:32:35;35.10;49.00
2955;DHT22;1487;51.470;6.938;2023-06-24T11:35:02;35.20;49.00
2955;DHT22;1487;51.470;6.938;2023-06-24T11:37:31;35.00;47.70
2955;DHT22;1487;51.470;6.938;2023-06-24T11:40:04;35.00;51.30
2955;DHT22;1487;51.470;6.938;2023-06-24T11:42:32;35.30;47.50
2955;DHT22;1487;51.470;6.938;2023-06-24T11:45:02;35.20;49.90
2955;DHT22;1487;51.470;6.938;2023-06-24T11:47:31;35.40;48.50
2955;DHT22;1487;51.470;6.938;2023-06-24T11:49:59;35.20;48.60
2955;DHT22;1487;51.470;6.938;2023-06-24T11:52:32;35.40;49.10
2955;DHT22;1487;51.470;6.938;2023-06-24T11:54:59;35.10;50.70
2955;DHT22;1487;51.470;6.938;2023-06-24T11:57:49;35.70;49.90
2955;DHT22;1487;51.470;6.938;2023-06-24T12:00:16;35.60;50.90
2955;DHT22;1487;51.470;6.938;2023-06-24T12:02:43;35.70;48.80
2955;DHT22;1487;51.470;6.938;2023-06-24T12:05:10;35.60;48.60
2955;DHT22;1487;51.470;6.938;2023-06-24T12:07:37;35.40;48.70
2955;DHT22;1487;51.470;6.938;2023-06-24T12:10:05;35.30;47.90
2955;DHT22;1487;51.470;6.938;2023-06-24T12:12:31;34.80;48.40
2955;DHT22;1487;51.470;6.938;2023-06-24T12:15:00;34.80;50.10
2955;DHT22;1487;51.470;6.938;2023-06-24T12:17:27;34.80;51.10
2955;DHT22;1487;51.470;6.938;2023-06-24T12:19:53;35.10;52.30
2955;DHT22;1487;51.470;6.938;2023-06-24T12:22:20;35.40;53.40
2955;DHT22;1487;51.470;6.938;2023-06-24T12:24:47;36.10;53.60
2955;DHT22;1487;51.470;6.938;2023-06-24T12:27:14;36.40;50.70
2955;DHT22;1487;51.470;6.938;2023-06-24T12:29:41;36.80;51.50
2955;DHT22;1487;51.470;6.938;2023-06-24T12:32:09;37.00;49.50
2955;DHT22;1487;51.470;6.938;2023-06-24T12:34:35;37.10;48.40
2955;DHT22;1487;51.470;6.938;2023-06-24T12:37:03;37.30;47.70
2955;DHT22;1487;51.470;6.938;2023-06-24T12:39:29;37.00;47.30
2955;DHT22;1487;51.470;6.938;2023-06-24T12:41:56;37.10;48.00
2955;DHT22;1487;51.470;6.938;2023-06-24T12:44:23;36.60;46.30
2955;DHT22;1487;51.470;6.938;2023-06-24T12:46:50;35.50;45.80
2955;DHT22;1487;51.470;6.938;2023-06-24T12:49:18;35.10;48.70
2955;DHT22;1487;51.470;6.938;2023-06-24T12:51:44;35.40;52.00
2955;DHT22;1487;51.470;6.938;2023-06-24T12:54:11;35.10;49.00
2955;DHT22;1487;51.470;6.938;2023-06-24T12:56:38;34.70;50.60
2955;DHT22;1487;51.470;6.938;2023-06-24T12:59:05;34.70;49.20
2955;DHT22;1487;51.470;6.938;2023-06-24T13:01:32;35.40;50.70
2955;DHT22;1487;51.470;6.938;2023-06-24T13:03:59;35.70;48.40
2955;DHT22;1487;51.470;6.938;2023-06-24T13:06:27;35.90;48.10
2955;DHT22;1487;51.470;6.938;2023-06-24T13:08:54;35.90;48.00
2955;DHT22;1487;51.470;6.938;2023-06-24T13:11:20;35.80;47.90
2955;DHT22;1487;51.470;6.938;2023-06-24T13:13:47;35.90;49.40
2955;DHT22;1487;51.470;6.938;2023-06-24T13:16:14;35.90;48.70
2955;DHT22;1487;51.470;6.938;2023-06-24T13:18:41;36.40;48.20
2955;DHT22;1487;51.470;6.938;2023-06-24T13:21:08;36.80;48.20
2955;DHT22;1487;51.470;6.938;2023-06-24T13:23:36;37.10;46.30
2955;DHT22;1487;51.470;6.938;2023-06-24T13:26:04;36.90;49.70
2955;DHT22;1487;51.470;6.938;2023-06-24T13:28:30;37.20;47.20
2955;DHT22;1487;51.470;6.938;2023-06-24T13:30:58;37.20;47.40
2955;DHT22;1487;51.470;6.938;2023-06-24T13:33:24;37.30;46.50
2955;DHT22;1487;51.470;6.938;2023-06-24T13:35:52;37.20;46.40
2955;DHT22;1487;51.470;6.938;2023-06-24T13:38:18;37.50;48.00
2955;DHT22;1487;51.470;6.938;2023-06-24T13:40:47;37.80;47.30
2955;DHT22;1487;51.470;6.938;2023-06-24T13:43:14;37.90;47.60
2955;DHT22;1487;51.470;6.938;2023-06-24T13:45:41;37.80;45.80
2955;DHT22;1487;51.470;6.938;2023-06-24T13:48:07;37.70;47.50
2955;DHT22;1487;51.470;6.938;2023-06-24T13:50:34;37.70;48.00
2955;DHT22;1487;51.470;6.938;2023-06-24T13:53:01;37.60;47.10
2955;DHT22;1487;51.470;6.938;2023-06-24T13:55:28;37.40;46.40
2955;DHT22;1487;51.470;6.938;2023-06-24T13:57:56;37.30;46.90
2955;DHT22;1487;51.470;6.938;2023-06-24T14:00:22;36.80;42.60
2955;DHT22;1487;51.470;6.938;2023-06-24T14:02:50;36.40;45.80
2955;DHT22;1487;51.470;6.938;2023-06-24T14:05:17;36.70;46.60
2955;DHT22;1487;51.470;6.938;2023-06-24T14:07:43;37.10;47.70
2955;DHT22;1487;51.470;6.938;2023-06-24T14:10:10;37.10;44.70
2955;DHT22;1487;51.470;6.938;2023-06-24T14:12:37;37.00;46.10
2955;DHT22;1487;51.470;6.938;2023-06-24T14:15:06;37.10;43.50
2955;DHT22;1487;51.470;6.938;2023-06-24T14:17:33;37.20;47.50
2955;DHT22;1487;51.470;6.938;2023-06-24T14:20:00;37.20;44.90
2955;DHT22;1487;51.470;6.938;2023-06-24T14:22:27;36.80;44.60
2955;DHT22;1487;51.470;6.938;2023-06-24T14:24:53;36.60;42.60
2955;DHT22;1487;51.470;6.938;2023-06-24T14:27:20;36.50;43.10
2955;DHT22;1487;51.470;6.938;2023-06-24T14:29:47;36.10;41.90
2955;DHT22;1487;51.470;6.938;2023-06-24T14:32:15;36.00;42.30
2955;DHT22;1487;51.470;6.938;2023-06-24T14:34:42;35.30;39.20
2955;DHT22;1487;51.470;6.938;2023-06-24T14:37:08;34.70;40.60
2955;DHT22;1487;51.470;6.938;2023-06-24T14:39:35;34.70;41.10
2955;DHT22;1487;51.470;6.938;2023-06-24T14:42:02;34.60;41.20
2955;DHT22;1487;51.470;6.938;2023-06-24T14:44:29;34.70;45.40
2955;DHT22;1487;51.470;6.938;2023-06-24T14:46:56;35.00;44.40
2955;DHT22;1487;51.470;6.938;2023-06-24T14:49:24;35.60;43.50
2955;DHT22;1487;51.470;6.938;2023-06-24T14:51:52;36.00;41.70
2955;DHT22;1487;51.470;6.938;2023-06-24T14:54:19;35.90;44.10
2955;DHT22;1487;51.470;6.938;2023-06-24T14:56:45;35.80;40.30
2955;DHT22;1487;51.470;6.938;2023-06-24T14:59:12;35.20;41.30
2955;DHT22;1487;51.470;6.938;2023-06-24T15:01:39;34.80;41.40
2955;DHT22;1487;51.470;6.938;2023-06-24T15:04:06;34.90;42.10
2955;DHT22;1487;51.470;6.938;2023-06-24T15:06:34;35.10;41.60
2955;DHT22;1487;51.470;6.938;2023-06-24T15:09:01;34.90;41.50
2955;DHT22;1487;51.470;6.938;2023-06-24T15:11:28;34.40;42.30
2955;DHT22;1487;51.470;6.938;2023-06-24T15:13:55;34.40;42.20
2955;DHT22;1487;51.470;6.938;2023-06-24T15:16:22;34.40;41.50
2955;DHT22;1487;51.470;6.938;2023-06-24T15:18:48;34.10;41.60
2955;DHT22;1487;51.470;6.938;2023-06-24T15:21:16;33.90;42.50
2955;DHT22;1487;51.470;6.938;2023-06-24T15:23:44;33.90;44.10
2955;DHT22;1487;51.470;6.938;2023-06-24T15:26:11;34.30;43.00
2955;DHT22;1487;51.470;6.938;2023-06-24T15:28:38;34.90;44.40
2955;DHT22;1487;51.470;6.938;2023-06-24T15:31:04;34.80;41.50
2955;DHT22;1487;51.470;6.938;2023-06-24T15:33:31;34.70;41.90
2955;DHT22;1487;51.470;6.938;2023-06-24T15:35:58;34.90;42.60
2955;DHT22;1487;51.470;6.938;2023-06-24T15:38:25;35.00;42.30
2955;DHT22;1487;51.470;6.938;2023-06-24T15:40:53;34.90;43.60
2955;DHT22;1487;51.470;6.938;2023-06-24T15:43:20;34.80;42.70
2955;DHT22;1487;51.470;6.938;2023-06-24T15:45:48;34.80;42.50
2955;DHT22;1487;51.470;6.938;2023-06-24T15:48:16;35.00;42.30
2955;DHT22;1487;51.470;6.938;2023-06-24T15:50:43;35.20;44.10
2955;DHT22;1487;51.470;6.938;2023-06-24T15:53:10;35.20;43.90
2955;DHT22;1487;51.470;6.938;2023-06-24T15:55:36;35.20;43.20
2955;DHT22;1487;51.470;6.938;2023-06-24T15:58:04;35.20;44.80
2955;DHT22;1487;51.470;6.938;2023-06-24T16:00:31;35.50;44.00
2955;DHT22;1487;51.470;6.938;2023-06-24T16:02:58;35.60;43.50
2955;DHT22;1487;51.470;6.938;2023-06-24T16:05:25;35.40;42.20
2955;DHT22;1487;51.470;6.938;2023-06-24T16:07:51;35.10;42.40
2955;DHT22;1487;51.470;6.938;2023-06-24T16:10:18;34.90;44.80
2955;DHT22;1487;51.470;6.938;2023-06-24T16:12:45;35.10;45.50
2955;DHT22;1487;51.470;6.938;2023-06-24T16:15:13;34.80;44.20
2955;DHT22;1487;51.470;6.938;2023-06-24T16:17:40;34.20;45.90